createdAt,value
2023-04-02T00:02:22.644Z,2.25
2023-04-02T00:05:20.696Z,3.95
2023-04-02T00:07:50.718Z,3.83
2023-04-02T00:10:30.282Z,2.17
2023-04-02T00:13:06.707Z,2.20
2023-04-02T00:15:34.685Z,3.28
2023-04-02T00:18:03.008Z,4.40
2023-04-02T00:20:35.427Z,2.53
2023-04-02T00:23:03.592Z,3.33
2023-04-02T00:25:36.108Z,4.45
2023-04-02T00:28:04.716Z,2.78
2023-04-02T00:30:32.027Z,3.58
2023-04-02T00:32:59.276Z,2.47
2023-04-02T00:35:29.259Z,2.40
2023-04-02T00:37:56.857Z,2.45
2023-04-02T00:40:26.835Z,4.87
2023-04-02T00:42:58.134Z,2.97
2023-04-02T00:45:32.127Z,3.55
2023-04-02T00:48:13.482Z,3.42
2023-04-02T00:50:43.244Z,2.03
2023-04-02T00:53:19.173Z,2.03
2023-04-02T00:55:46.496Z,3.35
2023-04-02T00:58:36.683Z,2.33
2023-04-02T01:01:04.737Z,2.60
2023-04-02T01:03:37.848Z,1.40
2023-04-02T01:06:17.076Z,1.73
2023-04-02T01:08:50.417Z,2.15
2023-04-02T01:11:23.474Z,2.78
2023-04-02T01:14:03.783Z,3.20
2023-04-02T01:16:31.145Z,3.03
2023-04-02T01:19:36.348Z,2.20
2023-04-02T01:22:30.890Z,1.52
2023-04-02T01:24:58.694Z,5.05
2023-04-02T01:27:40.664Z,2.55
2023-04-02T01:30:11.968Z,1.95
2023-04-02T01:32:40.600Z,2.80
2023-04-02T01:35:09.942Z,2.17
2023-04-02T01:37:39.869Z,2.65
2023-04-02T01:40:17.251Z,2.58
2023-04-02T01:42:49.683Z,3.70
2023-04-02T01:45:21.812Z,3.12
2023-04-02T01:47:50.280Z,2.15
2023-04-02T01:50:20.212Z,2.20
2023-04-02T01:52:51.492Z,1.60
2023-04-02T01:55:29.137Z,1.80
2023-04-02T01:57:57.698Z,0.95
2023-04-02T02:00:27.862Z,2.33
2023-04-02T02:02:56.202Z,1.55
2023-04-02T02:05:23.858Z,1.77
2023-04-02T02:07:52.437Z,1.35
2023-04-02T02:10:49.357Z,1.67
2023-04-02T02:13:17.070Z,1.40
2023-04-02T02:15:44.599Z,1.10
2023-04-02T02:18:13.408Z,2.20
2023-04-02T02:20:41.938Z,4.22
2023-04-02T02:23:12.811Z,2.40
2023-04-02T02:25:41.230Z,1.65
2023-04-02T02:28:18.059Z,2.97
2023-04-02T02:30:53.315Z,1.95
2023-04-02T02:33:46.647Z,1.40
2023-04-02T02:36:27.241Z,2.47
2023-04-02T02:39:05.180Z,1.37
2023-04-02T02:41:49.725Z,1.40
2023-04-02T02:44:27.408Z,1.98
2023-04-02T02:47:01.613Z,2.28
2023-04-02T02:49:32.864Z,1.87
2023-04-02T02:52:03.568Z,1.67
2023-04-02T02:54:33.321Z,1.87
2023-04-02T02:57:04.178Z,2.08
2023-04-02T02:59:32.133Z,1.50
2023-04-02T03:02:02.428Z,1.50
2023-04-02T03:04:30.756Z,1.42
2023-04-02T03:06:58.870Z,3.12
2023-04-02T03:09:35.225Z,1.23
2023-04-02T03:12:08.678Z,1.42
2023-04-02T03:15:00.114Z,1.87
2023-04-02T03:17:45.511Z,3.12
2023-04-02T03:21:11.290Z,1.67
2023-04-02T03:23:49.066Z,1.33
2023-04-02T03:26:19.180Z,1.20
2023-04-02T03:28:54.043Z,2.67
2023-04-02T03:33:59.320Z,2.17
2023-04-02T03:36:33.723Z,2.97
2023-04-02T03:39:22.213Z,2.95
2023-04-02T03:42:03.121Z,2.03
2023-04-02T03:44:33.304Z,1.23
2023-04-02T03:47:39.778Z,1.42
2023-04-02T03:50:21.699Z,3.03
2023-04-02T03:52:49.791Z,1.58
2023-04-02T03:55:28.806Z,1.08
2023-04-02T03:58:15.265Z,1.90
2023-04-02T04:00:51.094Z,1.62
2023-04-02T04:03:25.337Z,1.65
2023-04-02T04:06:02.612Z,1.48
2023-04-02T04:08:56.100Z,1.65
2023-04-02T04:11:30.605Z,2.42
2023-04-02T04:14:06.136Z,1.10
2023-04-02T04:16:43.003Z,1.90
2023-04-02T04:19:36.673Z,1.98
2023-04-02T04:22:14.949Z,2.00
2023-04-02T04:24:45.546Z,1.48
2023-04-02T04:27:33.887Z,2.08
2023-04-02T04:30:28.053Z,2.80
2023-04-02T04:33:04.164Z,1.50
2023-04-02T04:35:36.953Z,1.42
2023-04-02T04:38:14.473Z,1.85
2023-04-02T04:40:54.191Z,1.65
2023-04-02T04:43:34.010Z,1.58
2023-04-02T04:46:09.930Z,1.35
2023-04-02T04:49:00.415Z,1.15
2023-04-02T04:51:42.469Z,1.45
2023-04-02T04:54:13.526Z,1.60
2023-04-02T04:56:46.753Z,1.73
2023-04-02T04:59:42.184Z,1.98
2023-04-02T05:02:23.804Z,1.40
2023-04-02T05:04:52.687Z,2.00
2023-04-02T05:07:26.373Z,1.83
2023-04-02T05:10:20.496Z,3.25
2023-04-02T05:12:54.492Z,1.37
2023-04-02T05:15:42.179Z,1.85
2023-04-02T05:18:21.966Z,1.73
2023-04-02T05:21:12.684Z,1.90
2023-04-02T05:23:44.821Z,1.92
2023-04-02T05:26:20.818Z,1.98
2023-04-02T05:29:00.593Z,1.90
2023-04-02T05:31:27.982Z,1.20
2023-04-02T05:33:56.775Z,2.45
2023-04-02T05:36:29.600Z,1.95
2023-04-02T05:38:59.147Z,2.90
2023-04-02T05:41:32.254Z,2.58
2023-04-02T05:44:11.453Z,4.53
2023-04-02T05:46:57.138Z,3.17
2023-04-02T05:49:32.018Z,2.30
2023-04-02T05:52:02.504Z,1.67
2023-04-02T05:54:44.432Z,2.37
2023-04-02T05:57:20.517Z,1.58
2023-04-02T05:59:54.657Z,2.87
2023-04-02T06:02:36.660Z,1.65
2023-04-02T06:05:17.330Z,1.35
2023-04-02T06:07:57.930Z,1.58
2023-04-02T06:10:45.578Z,6.20
2023-04-02T06:13:17.836Z,2.10
2023-04-02T06:15:47.761Z,2.72
2023-04-02T06:18:19.966Z,1.62
2023-04-02T06:20:47.965Z,1.62
2023-04-02T06:23:37.586Z,9.50
2023-04-02T06:26:12.328Z,2.53
2023-04-02T06:28:47.752Z,2.72
2023-04-02T06:31:27.713Z,2.92
2023-04-02T06:33:56.670Z,2.33
2023-04-02T06:36:27.201Z,6.22
2023-04-02T06:39:08.109Z,2.20
2023-04-02T06:41:36.237Z,4.65
2023-04-02T06:44:17.076Z,1.73
2023-04-02T06:46:52.696Z,2.70
2023-04-02T06:49:30.954Z,2.42
2023-04-02T06:52:01.830Z,3.05
2023-04-02T06:54:29.879Z,1.77
2023-04-02T06:56:57.983Z,3.08
2023-04-02T06:59:26.500Z,4.50
2023-04-02T07:02:27.348Z,1.87
2023-04-02T07:05:03.562Z,1.92
2023-04-02T07:07:31.641Z,1.37
2023-04-02T07:09:59.713Z,1.77
2023-04-02T07:12:26.873Z,1.83
2023-04-02T07:14:54.291Z,1.58
2023-04-02T07:17:22.749Z,2.53
2023-04-02T07:19:50.040Z,1.55
2023-04-02T07:22:18.969Z,1.15
2023-04-02T07:24:48.161Z,2.12
2023-04-02T07:27:15.544Z,3.00
2023-04-02T07:29:43.043Z,2.60
2023-04-02T07:32:12.326Z,1.40
2023-04-02T07:34:41.245Z,1.67
2023-04-02T07:37:13.092Z,1.65
2023-04-02T07:39:40.841Z,3.35
2023-04-02T07:42:08.103Z,3.37
2023-04-02T07:44:35.320Z,2.12
2023-04-02T07:47:02.849Z,1.65
2023-04-02T07:49:29.995Z,2.22
2023-04-02T07:51:57.148Z,3.03
2023-04-02T07:54:24.881Z,2.45
2023-04-02T07:56:51.958Z,1.65
2023-04-02T07:59:19.106Z,4.40
2023-04-02T08:01:46.649Z,1.95
2023-04-02T08:04:18.527Z,4.62
2023-04-02T08:06:46.963Z,2.03
2023-04-02T08:09:16.150Z,3.87
2023-04-02T08:11:43.495Z,4.28
2023-04-02T08:14:10.838Z,1.92
2023-04-02T08:16:48.977Z,1.87
2023-04-02T08:19:16.645Z,1.62
2023-04-02T08:21:44.539Z,2.50
2023-04-02T08:24:11.930Z,2.62
2023-04-02T08:26:39.065Z,2.58
2023-04-02T08:29:06.505Z,3.40
2023-04-02T08:31:33.640Z,2.87
2023-04-02T08:34:01.600Z,3.42
2023-04-02T08:36:32.879Z,2.47
2023-04-02T08:39:01.096Z,2.83
2023-04-02T08:41:28.683Z,3.40
2023-04-02T08:44:09.219Z,2.30
2023-04-02T08:46:52.112Z,2.08
2023-04-02T08:49:27.930Z,3.05
2023-04-02T08:51:55.445Z,2.70
2023-04-02T08:54:34.315Z,6.10
2023-04-02T08:57:06.516Z,4.57
2023-04-02T08:59:38.217Z,2.70
2023-04-02T09:02:28.176Z,4.47
2023-04-02T09:04:57.991Z,6.87
2023-04-02T09:07:27.028Z,3.30
2023-04-02T09:09:54.230Z,3.28
2023-04-02T09:12:32.067Z,2.40
2023-04-02T09:15:14.505Z,2.92
2023-04-02T09:17:52.982Z,3.22
2023-04-02T09:20:28.599Z,5.43
2023-04-02T09:22:57.195Z,7.75
2023-04-02T09:25:28.177Z,4.32
2023-04-02T09:27:57.542Z,2.05
2023-04-02T09:30:52.404Z,3.53
2023-04-02T09:33:19.469Z,2.55
2023-04-02T09:35:49.505Z,5.25
2023-04-02T09:38:32.628Z,3.42
2023-04-02T09:41:18.635Z,3.35
2023-04-02T09:43:45.700Z,3.17
2023-04-02T09:46:13.046Z,3.47
2023-04-02T09:49:00.932Z,5.80
2023-04-02T09:51:31.844Z,2.62
2023-04-02T09:54:04.703Z,2.28
2023-04-02T09:56:37.313Z,2.97
2023-04-02T09:59:15.668Z,2.65
2023-04-02T10:01:56.806Z,2.53
2023-04-02T10:04:44.568Z,2.35
2023-04-02T10:07:53.501Z,6.40
2023-04-02T10:10:36.911Z,2.10
2023-04-02T10:13:16.346Z,3.75
2023-04-02T10:15:58.897Z,3.10
2023-04-02T10:18:44.597Z,2.15
2023-04-02T10:21:17.062Z,2.65
2023-04-02T10:23:44.409Z,2.37
2023-04-02T10:26:11.661Z,5.45
2023-04-02T10:29:17.191Z,4.62
2023-04-02T10:31:52.703Z,2.50
2023-04-02T10:34:31.702Z,2.05
2023-04-02T10:37:11.610Z,3.40
2023-04-02T10:39:40.087Z,3.60
2023-04-02T10:42:16.972Z,2.30
2023-04-02T10:45:01.873Z,5.85
2023-04-02T10:48:20.818Z,2.45
2023-04-02T10:51:01.257Z,2.17
2023-04-02T10:53:46.075Z,3.62
2023-04-02T10:56:14.752Z,2.12
2023-04-02T10:58:57.430Z,3.67
2023-04-02T11:01:31.030Z,2.20
2023-04-02T11:04:21.922Z,2.58
2023-04-02T11:07:07.038Z,2.05
2023-04-02T11:09:41.557Z,2.22
2023-04-02T11:12:16.776Z,3.45
2023-04-02T11:14:44.179Z,2.70
2023-04-02T11:17:16.267Z,3.37
2023-04-02T11:19:44.388Z,2.37
2023-04-02T11:22:16.293Z,3.25
2023-04-02T11:24:54.774Z,4.78
2023-04-02T11:27:36.035Z,3.60
2023-04-02T11:30:22.621Z,3.47
2023-04-02T11:32:50.316Z,1.85
2023-04-02T11:35:26.481Z,4.37
2023-04-02T11:37:56.667Z,4.50
2023-04-02T11:40:45.793Z,2.72
2023-04-02T11:43:34.364Z,2.37
2023-04-02T11:46:30.560Z,2.83
2023-04-02T11:49:55.319Z,3.37
2023-04-02T11:52:56.234Z,1.95
2023-04-02T11:55:29.746Z,3.12
2023-04-02T11:58:24.832Z,2.33
2023-04-02T12:03:48.505Z,1.87
2023-04-02T12:06:42.319Z,2.53
2023-04-02T12:09:31.531Z,4.37
2023-04-02T12:12:02.150Z,2.03
2023-04-02T12:14:29.677Z,3.17
2023-04-02T12:16:57.398Z,2.25
2023-04-02T12:19:25.927Z,2.45
2023-04-02T12:21:53.827Z,2.55
2023-04-02T12:24:23.630Z,2.55
2023-04-02T12:27:16.753Z,2.60
2023-04-02T12:29:44.204Z,3.05
2023-04-02T12:32:29.619Z,3.42
2023-04-02T12:34:59.112Z,3.30
2023-04-02T12:37:29.457Z,4.75
2023-04-02T12:40:01.585Z,2.55
2023-04-02T12:42:33.395Z,3.92
2023-04-02T12:45:01.529Z,2.35
2023-04-02T12:47:29.760Z,2.92
2023-04-02T12:49:59.135Z,2.03
2023-04-02T12:52:28.967Z,2.15
2023-04-02T12:54:59.306Z,6.95
2023-04-02T12:57:26.419Z,2.97
2023-04-02T13:00:17.863Z,3.58
2023-04-02T13:02:48.404Z,4.03
2023-04-02T13:05:43.470Z,3.58
2023-04-02T13:08:18.988Z,3.97
2023-04-02T13:10:52.208Z,3.05
2023-04-02T13:13:27.819Z,2.83
2023-04-02T13:16:10.067Z,2.53
2023-04-02T13:18:38.734Z,3.75
2023-04-02T13:21:28.532Z,3.58
2023-04-02T13:23:56.335Z,3.45
2023-04-02T13:26:28.832Z,2.75
2023-04-02T13:29:19.722Z,2.87
2023-04-02T13:31:46.903Z,3.45
2023-04-02T13:34:14.876Z,2.45
2023-04-02T13:36:42.096Z,2.67
2023-04-02T13:39:09.247Z,2.30
2023-04-02T13:41:48.858Z,3.83
2023-04-02T13:44:28.253Z,3.10
2023-04-02T13:46:57.035Z,2.47
2023-04-02T13:49:24.901Z,3.03
2023-04-02T13:51:54.885Z,4.22
2023-04-02T13:54:27.741Z,3.15
2023-04-02T13:56:56.836Z,2.37
2023-04-02T13:59:24.964Z,2.55
2023-04-02T14:01:56.285Z,2.83
2023-04-02T14:04:29.162Z,2.72
2023-04-02T14:07:05.338Z,6.47
2023-04-02T14:10:23.093Z,3.40
2023-04-02T14:13:35.030Z,3.20
2023-04-02T14:16:06.974Z,1.05
2023-04-02T14:18:52.670Z,1.77
2023-04-02T14:21:47.250Z,1.35
2023-04-02T14:24:35.788Z,1.90
2023-04-02T14:27:19.654Z,2.28
2023-04-02T14:29:52.212Z,2.20
2023-04-02T14:32:25.996Z,2.95
2023-04-02T14:35:08.482Z,2.70
2023-04-02T14:37:51.577Z,2.33
2023-04-02T14:40:50.286Z,2.22
2023-04-02T14:43:56.468Z,2.65
2023-04-02T14:46:27.955Z,2.05
2023-04-02T14:49:20.336Z,4.12
2023-04-02T14:51:52.971Z,2.10
2023-04-02T14:54:45.192Z,1.77
2023-04-02T14:57:16.981Z,1.45
2023-04-02T15:00:03.781Z,1.95
2023-04-02T15:02:45.617Z,2.53
2023-04-02T15:05:24.479Z,2.58
2023-04-02T15:07:59.630Z,2.75
2023-04-02T15:11:07.899Z,3.85
2023-04-02T15:14:26.720Z,3.40
2023-04-02T15:16:54.145Z,3.78
2023-04-02T15:19:21.181Z,3.12
2023-04-02T15:22:12.782Z,3.50
2023-04-02T15:24:43.721Z,3.65
2023-04-02T15:27:25.420Z,4.28
2023-04-02T15:30:15.608Z,3.35
2023-04-02T15:32:43.636Z,5.43
2023-04-02T15:35:32.377Z,3.65
2023-04-02T15:38:02.122Z,5.35
2023-04-02T15:40:44.422Z,4.00
2023-04-02T15:43:20.309Z,3.50
2023-04-02T15:46:10.983Z,4.10
2023-04-02T15:48:51.571Z,3.75
2023-04-02T15:51:34.179Z,3.97
2023-04-02T15:54:20.744Z,3.62
2023-04-02T15:57:02.145Z,5.70
2023-04-02T15:59:51.777Z,4.05
2023-04-02T16:02:49.692Z,4.43
2023-04-02T16:05:38.621Z,2.90
2023-04-02T16:08:12.030Z,3.78
2023-04-02T16:13:19.064Z,3.47
2023-04-02T16:16:01.901Z,3.67
2023-04-02T16:18:40.760Z,3.85
2023-04-02T16:21:12.308Z,2.72
2023-04-02T16:23:42.070Z,4.50
2023-04-02T16:26:36.999Z,3.47
2023-04-02T16:29:15.031Z,3.17
2023-04-02T16:31:54.313Z,3.03
2023-04-02T16:34:46.156Z,2.22
2023-04-02T16:37:40.945Z,3.35
2023-04-02T16:40:31.886Z,1.87
2023-04-02T16:43:01.983Z,1.80
2023-04-02T16:46:07.597Z,1.10
2023-04-02T16:49:09.196Z,3.05
2023-04-02T16:52:08.049Z,2.37
2023-04-02T16:55:13.813Z,3.25
2023-04-02T16:58:02.600Z,3.62
2023-04-02T17:00:32.574Z,2.40
2023-04-02T17:03:18.987Z,1.35
2023-04-02T17:06:01.960Z,1.37
2023-04-02T17:08:36.527Z,1.50
2023-04-02T17:11:28.342Z,4.68
2023-04-02T17:14:06.311Z,2.47
2023-04-02T17:16:50.536Z,2.20
2023-04-02T17:19:19.352Z,3.12
2023-04-02T17:21:52.045Z,11.63
2023-04-02T17:24:33.644Z,2.08
2023-04-02T17:27:14.277Z,2.33
2023-04-02T17:29:44.792Z,5.00
2023-04-02T17:32:22.161Z,2.85
2023-04-02T17:34:49.278Z,2.37
2023-04-02T17:37:23.047Z,2.00
2023-04-02T17:40:08.365Z,3.22
2023-04-02T17:42:41.707Z,2.35
2023-04-02T17:45:13.964Z,3.15
2023-04-02T17:48:03.481Z,5.18
2023-04-02T17:50:46.099Z,2.67
2023-04-02T17:53:25.808Z,3.70
2023-04-02T17:56:07.167Z,4.62
2023-04-02T17:58:34.514Z,3.65
2023-04-02T18:01:17.754Z,10.32
2023-04-02T18:04:00.406Z,12.00
2023-04-02T18:06:39.508Z,5.40
2023-04-02T18:09:29.115Z,5.68
2023-04-02T18:12:17.710Z,4.05
2023-04-02T18:15:19.502Z,4.15
2023-04-02T18:17:54.471Z,4.60
2023-04-02T18:20:42.500Z,5.10
2023-04-02T18:23:45.995Z,7.57
2023-04-02T18:26:51.160Z,9.15
2023-04-02T18:29:30.155Z,4.80
2023-04-02T18:32:19.034Z,6.28
2023-04-02T18:35:18.171Z,5.65
2023-04-02T18:38:21.454Z,6.45
2023-04-02T18:41:07.033Z,9.55
2023-04-02T18:43:57.495Z,7.35
2023-04-02T18:46:51.318Z,6.85
2023-04-02T18:49:34.949Z,9.18
2023-04-02T18:52:09.641Z,5.70
2023-04-02T18:54:53.776Z,5.68
2023-04-02T18:57:31.902Z,7.57
2023-04-02T19:00:04.598Z,6.10
2023-04-02T19:02:46.859Z,5.25
2023-04-02T19:05:36.118Z,7.10
2023-04-02T19:08:10.959Z,4.35
2023-04-02T19:10:42.381Z,4.87
2023-04-02T19:13:15.577Z,6.72
2023-04-02T19:16:18.216Z,5.45
2023-04-02T19:19:17.026Z,6.37
2023-04-02T19:22:05.688Z,5.93
2023-04-02T19:25:10.803Z,6.20
2023-04-02T19:28:00.526Z,6.87
2023-04-02T19:30:53.753Z,7.40
2023-04-02T19:33:56.146Z,6.45
2023-04-02T19:36:36.696Z,7.85
2023-04-02T19:39:09.939Z,7.20
2023-04-02T19:42:08.731Z,6.22
2023-04-02T19:44:42.539Z,7.00
2023-04-02T19:47:11.079Z,7.43
2023-04-02T19:49:38.443Z,7.55
2023-04-02T19:52:05.587Z,9.23
2023-04-02T19:54:32.687Z,6.65
2023-04-02T19:57:00.700Z,7.20
2023-04-02T19:59:28.480Z,7.75
2023-04-02T20:01:55.771Z,6.75
2023-04-02T20:04:23.212Z,7.40
2023-04-02T20:06:50.692Z,9.02
2023-04-02T20:09:17.785Z,8.18
2023-04-02T20:11:45.488Z,8.52
2023-04-02T20:14:12.638Z,8.93
2023-04-02T20:16:39.848Z,10.23
2023-04-02T20:19:07.272Z,7.03
2023-04-02T20:21:38.459Z,7.62
2023-04-02T20:24:07.522Z,10.20
2023-04-02T20:26:36.101Z,8.68
2023-04-02T20:29:03.675Z,6.65
2023-04-02T20:31:31.497Z,6.57
2023-04-02T20:34:00.012Z,7.62
2023-04-02T20:36:27.251Z,7.10
2023-04-02T20:38:54.319Z,8.27
2023-04-02T20:41:21.981Z,8.35
2023-04-02T20:43:50.049Z,8.18
2023-04-02T20:46:17.312Z,7.45
2023-04-02T20:48:45.204Z,9.15
2023-04-02T20:51:14.774Z,7.35
2023-04-02T20:53:42.175Z,10.82
2023-04-02T20:56:15.513Z,7.90
2023-04-02T20:58:43.497Z,5.03
2023-04-02T21:01:10.885Z,7.18
2023-04-02T21:03:39.821Z,7.65
2023-04-02T21:06:13.759Z,9.35
2023-04-02T21:11:09.564Z,8.25
2023-04-02T21:13:37.655Z,6.53
2023-04-02T21:16:11.889Z,8.07
2023-04-02T21:18:39.209Z,6.53
2023-04-02T21:21:07.072Z,7.03
2023-04-02T21:23:34.604Z,7.18
2023-04-02T21:26:06.205Z,7.35
2023-04-02T21:28:34.863Z,7.05
2023-04-02T21:31:16.281Z,6.00
2023-04-02T21:33:46.582Z,6.55
2023-04-02T21:36:19.682Z,7.93
2023-04-02T21:38:52.611Z,7.37
2023-04-02T21:41:30.969Z,6.70
2023-04-02T21:44:00.298Z,6.78
2023-04-02T21:46:31.325Z,8.90
2023-04-02T21:49:00.251Z,8.23
2023-04-02T21:51:32.860Z,9.15
2023-04-02T21:54:01.620Z,8.50
2023-04-02T21:56:31.524Z,7.32
2023-04-02T21:59:01.793Z,10.30
2023-04-02T22:01:32.463Z,8.65
2023-04-02T22:04:02.460Z,7.32
2023-04-02T22:06:32.261Z,9.13
2023-04-02T22:09:02.440Z,8.27
2023-04-02T22:11:36.922Z,6.75
2023-04-02T22:14:05.808Z,7.40
2023-04-02T22:16:34.987Z,7.35
2023-04-02T22:19:07.390Z,9.57
2023-04-02T22:21:36.800Z,7.47
2023-04-02T22:24:06.920Z,7.43
2023-04-02T22:26:35.104Z,9.02
2023-04-02T22:29:02.209Z,8.52
2023-04-02T22:31:31.592Z,9.07
2023-04-02T22:33:59.739Z,6.80
2023-04-02T22:36:28.874Z,8.27
2023-04-02T22:38:57.438Z,9.57
2023-04-02T22:41:27.954Z,8.25
2023-04-02T22:43:56.670Z,7.53
2023-04-02T22:46:26.063Z,8.07
2023-04-02T22:48:54.338Z,8.40
2023-04-02T22:51:22.767Z,9.65
2023-04-02T22:53:49.951Z,8.88
2023-04-02T22:56:23.129Z,9.50
2023-04-02T22:58:50.436Z,8.73
2023-04-02T23:01:24.995Z,13.65
2023-04-02T23:03:54.024Z,10.00
2023-04-02T23:06:22.501Z,11.23
2023-04-02T23:08:49.828Z,9.63
2023-04-02T23:11:20.040Z,9.82
2023-04-02T23:13:49.637Z,8.68
2023-04-02T23:16:17.601Z,8.60
2023-04-02T23:18:48.471Z,7.62
2023-04-02T23:21:17.405Z,7.72
2023-04-02T23:23:45.651Z,11.55
2023-04-02T23:26:18.621Z,9.10
2023-04-02T23:28:45.981Z,7.62
2023-04-02T23:31:15.902Z,8.85
2023-04-02T23:33:44.155Z,8.65
2023-04-02T23:36:20.268Z,6.40
2023-04-02T23:38:47.821Z,8.48
2023-04-02T23:41:16.761Z,9.10
2023-04-02T23:43:44.276Z,6.97
2023-04-02T23:46:11.634Z,7.55
2023-04-02T23:48:39.362Z,7.10
2023-04-02T23:51:07.276Z,7.57
2023-04-02T23:53:35.225Z,7.97
2023-04-02T23:56:02.721Z,8.15
2023-04-02T23:58:29.777Z,7.68
